createdAt,value
2022-09-17T00:04:41.494Z,0.68
2022-09-17T00:09:44.239Z,0.90
2022-09-17T00:14:49.016Z,0.63
2022-09-17T00:19:51.590Z,0.63
2022-09-17T00:24:54.185Z,0.63
2022-09-17T00:29:58.197Z,0.65
2022-09-17T00:35:00.919Z,0.88
2022-09-17T00:40:04.073Z,0.80
2022-09-17T00:45:10.064Z,0.80
2022-09-17T00:50:15.531Z,0.90
2022-09-17T00:55:22.760Z,0.77
2022-09-17T01:00:27.136Z,0.50
2022-09-17T01:05:39.383Z,0.57
2022-09-17T01:10:59.348Z,0.60
2022-09-17T01:16:08.873Z,0.50
2022-09-17T01:21:38.939Z,0.52
2022-09-17T01:27:16.653Z,0.95
2022-09-17T01:32:25.694Z,0.55
2022-09-17T01:37:32.073Z,0.50
2022-09-17T01:42:39.007Z,0.50
2022-09-17T01:47:46.277Z,0.47
2022-09-17T01:52:52.374Z,0.40
2022-09-17T01:57:56.898Z,0.90
2022-09-17T02:03:03.269Z,0.40
2022-09-17T02:08:08.194Z,0.50
2022-09-17T02:13:16.140Z,0.47
2022-09-17T02:18:25.268Z,0.50
2022-09-17T02:23:32.989Z,0.50
2022-09-17T02:28:41.637Z,0.63
2022-09-17T02:33:49.688Z,0.60
2022-09-17T02:39:00.626Z,0.57
2022-09-17T02:44:08.447Z,0.47
2022-09-17T02:49:32.096Z,0.30
2022-09-17T02:54:41.159Z,0.63
2022-09-17T02:59:49.526Z,0.40
2022-09-17T03:04:55.621Z,0.40
2022-09-17T03:09:58.492Z,0.55
2022-09-17T03:15:01.286Z,0.40
2022-09-17T03:20:06.097Z,0.30
2022-09-17T03:25:09.798Z,0.40
2022-09-17T03:30:12.681Z,0.40
2022-09-17T03:35:17.715Z,0.30
2022-09-17T03:40:20.813Z,0.20
2022-09-17T03:45:23.551Z,0.30
2022-09-17T03:50:27.660Z,0.40
2022-09-17T03:55:30.254Z,0.40
2022-09-17T04:00:32.944Z,0.32
2022-09-17T04:05:36.904Z,0.80
2022-09-17T04:10:39.587Z,0.73
2022-09-17T04:15:42.781Z,0.93
2022-09-17T04:20:46.828Z,0.80
2022-09-17T04:25:49.390Z,1.10
2022-09-17T04:30:52.075Z,0.98
2022-09-17T04:35:55.983Z,0.80
2022-09-17T04:40:59.083Z,0.68
2022-09-17T04:46:01.669Z,1.13
2022-09-17T04:51:06.077Z,0.80
2022-09-17T04:56:08.630Z,0.70
2022-09-17T05:01:11.297Z,0.70
2022-09-17T05:06:15.472Z,0.70
2022-09-17T05:11:18.050Z,0.60
2022-09-17T05:16:20.755Z,0.50
2022-09-17T05:21:25.009Z,0.80
2022-09-17T05:26:27.643Z,0.73
2022-09-17T05:31:31.117Z,1.13
2022-09-17T05:36:35.215Z,0.60
2022-09-17T05:41:37.784Z,0.50
2022-09-17T05:46:40.525Z,0.60
2022-09-17T05:51:44.518Z,0.82
2022-09-17T05:56:47.103Z,0.73
2022-09-17T06:01:50.854Z,0.98
2022-09-17T06:06:54.849Z,0.77
2022-09-17T06:11:57.472Z,0.90
2022-09-17T06:17:00.316Z,0.60
2022-09-17T06:22:05.800Z,0.70
2022-09-17T06:27:08.477Z,0.60
2022-09-17T06:32:13.019Z,0.80
2022-09-17T06:37:17.492Z,0.80
2022-09-17T06:42:20.092Z,0.82
2022-09-17T06:47:25.319Z,0.60
2022-09-17T06:52:29.308Z,0.70
2022-09-17T06:57:31.965Z,0.82
2022-09-17T07:02:34.861Z,1.00
2022-09-17T07:07:40.357Z,1.00
2022-09-17T07:12:47.846Z,1.40
2022-09-17T07:17:52.915Z,1.35
2022-09-17T07:22:59.855Z,1.80
2022-09-17T07:28:03.931Z,0.93
2022-09-17T07:33:06.526Z,1.48
2022-09-17T07:38:10.435Z,1.08
2022-09-17T07:43:13.016Z,1.02
2022-09-17T07:48:15.616Z,0.88
2022-09-17T07:53:19.908Z,1.02
2022-09-17T07:58:22.783Z,1.15
2022-09-17T08:03:25.401Z,0.90
2022-09-17T08:08:29.316Z,1.23
2022-09-17T08:13:32.187Z,1.02
2022-09-17T08:18:35.639Z,0.75
2022-09-17T08:23:41.223Z,0.73
2022-09-17T08:28:47.751Z,1.38
2022-09-17T08:33:50.522Z,0.98
2022-09-17T08:38:55.592Z,0.73
2022-09-17T08:44:07.618Z,1.20
2022-09-17T08:49:15.722Z,0.77
2022-09-17T08:54:24.324Z,0.80
2022-09-17T08:59:30.975Z,0.93
2022-09-17T09:04:59.585Z,0.60
2022-09-17T09:10:13.860Z,0.60
2022-09-17T09:15:30.317Z,0.60
2022-09-17T09:20:41.380Z,0.95
2022-09-17T09:25:53.656Z,0.43
2022-09-17T09:31:01.621Z,0.60
2022-09-17T09:36:07.514Z,0.70
2022-09-17T09:41:14.371Z,1.00
2022-09-17T09:46:32.648Z,0.95
2022-09-17T09:51:42.069Z,0.70
2022-09-17T09:56:57.427Z,0.85
2022-09-17T10:02:00.415Z,1.27
2022-09-17T10:07:05.709Z,1.10
2022-09-17T10:12:18.591Z,1.02
2022-09-17T10:17:23.492Z,0.93
2022-09-17T10:22:28.535Z,1.20
2022-09-17T10:27:32.768Z,0.90
2022-09-17T10:32:35.401Z,1.00
2022-09-17T10:37:44.389Z,1.02
2022-09-17T10:42:49.112Z,0.90
2022-09-17T10:47:52.369Z,1.10
2022-09-17T10:52:56.640Z,0.75
2022-09-17T10:58:10.347Z,0.80
2022-09-17T11:04:00.604Z,1.45
2022-09-17T11:09:11.704Z,0.80
2022-09-17T11:14:26.834Z,1.10
2022-09-17T11:19:38.518Z,1.08
2022-09-17T11:25:02.598Z,0.93
2022-09-17T11:30:11.703Z,1.00
2022-09-17T11:35:17.947Z,0.90
2022-09-17T11:40:23.886Z,1.00
2022-09-17T11:45:30.328Z,0.40
2022-09-17T11:50:37.553Z,0.63
2022-09-17T11:56:16.867Z,0.55
2022-09-17T12:01:27.196Z,0.90
2022-09-17T12:06:37.231Z,0.85
2022-09-17T12:11:42.729Z,1.00
2022-09-17T12:16:49.578Z,1.20
2022-09-17T12:21:55.613Z,0.90
2022-09-17T12:27:07.445Z,0.90
2022-09-17T12:32:26.234Z,0.95
2022-09-17T12:37:34.583Z,0.70
2022-09-17T12:42:50.316Z,0.82
2022-09-17T12:48:18.507Z,1.00
2022-09-17T12:53:25.025Z,1.17
2022-09-17T12:58:39.915Z,0.95
2022-09-17T13:03:48.196Z,0.88
2022-09-17T13:09:05.142Z,1.20
2022-09-17T13:14:14.616Z,0.88
2022-09-17T13:19:29.781Z,1.08
2022-09-17T13:24:33.150Z,0.80
2022-09-17T13:30:01.555Z,0.85
2022-09-17T13:35:49.008Z,0.85
2022-09-17T13:40:51.737Z,0.98
2022-09-17T13:46:11.293Z,0.80
2022-09-17T13:51:44.819Z,0.60
2022-09-17T13:56:50.712Z,0.60
2022-09-17T14:02:05.162Z,0.90
2022-09-17T14:07:33.408Z,1.00
2022-09-17T14:12:53.406Z,0.85
2022-09-17T14:17:56.219Z,0.90
2022-09-17T14:23:01.958Z,0.93
2022-09-17T14:28:09.742Z,1.08
2022-09-17T14:33:17.431Z,0.98
2022-09-17T14:38:24.754Z,0.70
2022-09-17T14:43:34.878Z,0.70
2022-09-17T14:48:37.893Z,0.90
2022-09-17T14:53:41.820Z,0.70
2022-09-17T14:58:47.570Z,0.80
2022-09-17T15:03:50.266Z,0.52
2022-09-17T15:08:58.530Z,0.80
2022-09-17T15:14:04.261Z,0.73
2022-09-17T15:19:07.056Z,1.00
2022-09-17T15:24:16.823Z,0.70
2022-09-17T15:29:22.770Z,0.50
2022-09-17T15:34:25.377Z,0.60
2022-09-17T15:39:38.125Z,0.80
2022-09-17T15:44:40.943Z,0.50
2022-09-17T15:49:43.779Z,0.63
2022-09-17T15:54:47.721Z,0.50
2022-09-17T15:59:50.611Z,0.47
2022-09-17T16:05:32.485Z,0.70
2022-09-17T16:10:36.635Z,0.60
2022-09-17T16:15:40.546Z,0.57
2022-09-17T16:20:43.493Z,0.85
2022-09-17T16:25:47.453Z,0.73
2022-09-17T16:30:50.502Z,0.45
2022-09-17T16:35:53.090Z,0.93
2022-09-17T16:40:57.042Z,0.40
2022-09-17T16:46:00.582Z,0.50
2022-09-17T16:51:07.931Z,0.60
2022-09-17T16:56:13.708Z,0.50
2022-09-17T17:01:17.231Z,0.30
2022-09-17T17:06:21.015Z,0.25
2022-09-17T17:11:25.111Z,0.80
2022-09-17T17:16:27.771Z,0.50
2022-09-17T17:21:30.465Z,0.50
2022-09-17T17:26:34.494Z,0.60
2022-09-17T17:31:37.720Z,0.50
2022-09-17T17:36:40.410Z,0.50
2022-09-17T17:41:46.481Z,0.90
2022-09-17T17:46:52.408Z,0.63
2022-09-17T17:51:55.068Z,0.50
2022-09-17T17:56:59.002Z,0.47
2022-09-17T18:02:01.883Z,0.82
2022-09-17T18:07:04.711Z,0.65
2022-09-17T18:12:09.142Z,0.68
2022-09-17T18:17:11.752Z,0.57
2022-09-17T18:22:14.367Z,0.40
2022-09-17T18:27:18.466Z,0.32
2022-09-17T18:32:21.077Z,0.50
2022-09-17T18:37:23.845Z,0.50
2022-09-17T18:42:27.810Z,0.50
2022-09-17T18:47:30.688Z,0.40
2022-09-17T18:52:33.295Z,0.45
2022-09-17T18:57:37.256Z,0.35
2022-09-17T19:02:40.260Z,0.30
2022-09-17T19:07:45.761Z,0.20
2022-09-17T19:12:50.051Z,0.50
2022-09-17T19:17:54.228Z,0.40
2022-09-17T19:22:56.949Z,0.40
2022-09-17T19:28:00.946Z,0.40
2022-09-17T19:33:04.696Z,0.30
2022-09-17T19:38:12.565Z,0.40
2022-09-17T19:43:17.210Z,0.30
2022-09-17T19:48:23.261Z,0.30
2022-09-17T19:53:27.961Z,0.32
2022-09-17T19:58:31.933Z,0.40
2022-09-17T20:03:34.636Z,0.40
2022-09-17T20:08:42.512Z,1.08
2022-09-17T20:13:47.625Z,0.60
2022-09-17T20:18:51.280Z,0.50
2022-09-17T20:23:54.189Z,0.57
2022-09-17T20:28:58.238Z,0.50
2022-09-17T20:34:02.616Z,0.50
2022-09-17T20:39:12.303Z,0.65
2022-09-17T20:44:18.902Z,0.40
2022-09-17T20:49:21.664Z,0.60
2022-09-17T20:54:24.264Z,0.30
2022-09-17T20:59:43.272Z,0.55
2022-09-17T21:04:45.880Z,0.60
2022-09-17T21:09:48.775Z,0.73
2022-09-17T21:14:52.754Z,0.47
2022-09-17T21:19:55.444Z,0.60
2022-09-17T21:24:59.380Z,0.40
2022-09-17T21:30:05.056Z,0.50
2022-09-17T21:35:08.190Z,0.40
2022-09-17T21:40:11.710Z,0.70
2022-09-17T21:45:15.924Z,0.60
2022-09-17T21:50:18.610Z,0.30
2022-09-17T21:55:21.187Z,0.50
2022-09-17T22:00:25.527Z,0.40
2022-09-17T22:05:29.675Z,0.60
2022-09-17T22:10:32.421Z,0.98
2022-09-17T22:15:36.462Z,0.60
2022-09-17T22:20:39.215Z,0.70
2022-09-17T22:25:41.828Z,0.80
2022-09-17T22:30:45.957Z,0.90
2022-09-17T22:35:48.674Z,0.88
2022-09-17T22:40:51.343Z,0.70
2022-09-17T22:45:55.269Z,0.70
2022-09-17T22:50:57.924Z,0.50
2022-09-17T22:56:01.066Z,0.85
2022-09-17T23:01:07.524Z,0.98
2022-09-17T23:06:12.322Z,1.00
2022-09-17T23:11:18.625Z,1.17
2022-09-17T23:16:22.638Z,0.90
2022-09-17T23:21:25.364Z,0.95
2022-09-17T23:26:29.522Z,1.20
2022-09-17T23:31:35.021Z,0.95
2022-09-17T23:36:39.791Z,0.88
2022-09-17T23:41:45.332Z,0.90
2022-09-17T23:46:49.435Z,0.88
2022-09-17T23:51:52.224Z,0.93
2022-09-17T23:56:54.994Z,0.80
